sensor_id;sensor_type;location;lat;lon;timestamp;temperature;humidity
11639;DHT22;5875;35.940;126.892;2023-04-09T00:01:38;13.10;99.90
11639;DHT22;5875;35.940;126.892;2023-04-09T00:04:05;13.00;99.90
11639;DHT22;5875;35.940;126.892;2023-04-09T00:06:32;13.90;99.90
11639;DHT22;5875;35.940;126.892;2023-04-09T00:08:59;14.80;99.90
11639;DHT22;5875;35.940;126.892;2023-04-09T00:11:27;15.50;99.90
11639;DHT22;5875;35.940;126.892;2023-04-09T00:13:54;15.10;99.90
11639;DHT22;5875;35.940;126.892;2023-04-09T00:16:21;15.80;99.90
11639;DHT22;5875;35.940;126.892;2023-04-09T00:18:48;16.10;99.90
11639;DHT22;5875;35.940;126.892;2023-04-09T00:21:16;15.60;99.90
11639;DHT22;5875;35.940;126.892;2023-04-09T00:23:43;16.50;99.90
11639;DHT22;5875;35.940;126.892;2023-04-09T00:26:10;16.60;99.90
11639;DHT22;5875;35.940;126.892;2023-04-09T00:28:38;17.70;99.90
11639;DHT22;5875;35.940;126.892;2023-04-09T00:31:05;17.90;99.90
11639;DHT22;5875;35.940;126.892;2023-04-09T00:33:33;17.80;99.90
11639;DHT22;5875;35.940;126.892;2023-04-09T00:36:00;17.40;99.90
11639;DHT22;5875;35.940;126.892;2023-04-09T00:38:27;18.30;99.90
11639;DHT22;5875;35.940;126.892;2023-04-09T00:40:54;17.20;99.90
11639;DHT22;5875;35.940;126.892;2023-04-09T00:43:21;17.90;99.90
11639;DHT22;5875;35.940;126.892;2023-04-09T00:45:49;18.70;99.90
11639;DHT22;5875;35.940;126.892;2023-04-09T00:48:16;18.90;99.90
11639;DHT22;5875;35.940;126.892;2023-04-09T00:50:44;18.60;99.90
11639;DHT22;5875;35.940;126.892;2023-04-09T00:53:11;19.60;99.90
11639;DHT22;5875;35.940;126.892;2023-04-09T00:55:40;20.10;99.90
11639;DHT22;5875;35.940;126.892;2023-04-09T00:58:08;20.20;99.90
11639;DHT22;5875;35.940;126.892;2023-04-09T01:00:35;20.60;99.90
11639;DHT22;5875;35.940;126.892;2023-04-09T01:03:04;20.60;99.90
11639;DHT22;5875;35.940;126.892;2023-04-09T01:08:37;21.00;99.90
11639;DHT22;5875;35.940;126.892;2023-04-09T01:11:31;21.40;99.90
11639;DHT22;5875;35.940;126.892;2023-04-09T01:16:28;21.60;99.90
11639;DHT22;5875;35.940;126.892;2023-04-09T01:19:03;21.70;99.90
11639;DHT22;5875;35.940;126.892;2023-04-09T01:21:33;22.30;99.90
11639;DHT22;5875;35.940;126.892;2023-04-09T01:27:01;23.00;99.90
11639;DHT22;5875;35.940;126.892;2023-04-09T01:29:44;22.70;99.90
11639;DHT22;5875;35.940;126.892;2023-04-09T01:32:14;23.20;99.90
11639;DHT22;5875;35.940;126.892;2023-04-09T01:34:45;23.50;99.90
11639;DHT22;5875;35.940;126.892;2023-04-09T01:37:14;23.90;99.90
11639;DHT22;5875;35.940;126.892;2023-04-09T01:39:41;23.90;99.90
11639;DHT22;5875;35.940;126.892;2023-04-09T01:42:10;23.90;99.90
11639;DHT22;5875;35.940;126.892;2023-04-09T01:44:39;24.30;99.90
11639;DHT22;5875;35.940;126.892;2023-04-09T01:47:07;24.80;99.90
11639;DHT22;5875;35.940;126.892;2023-04-09T01:49:36;25.40;99.90
11639;DHT22;5875;35.940;126.892;2023-04-09T01:52:03;24.90;99.90
11639;DHT22;5875;35.940;126.892;2023-04-09T01:54:31;24.80;99.90
11639;DHT22;5875;35.940;126.892;2023-04-09T01:56:58;25.10;99.90
11639;DHT22;5875;35.940;126.892;2023-04-09T01:59:26;25.10;99.90
11639;DHT22;5875;35.940;126.892;2023-04-09T02:01:59;24.90;99.90
11639;DHT22;5875;35.940;126.892;2023-04-09T02:04:47;25.10;99.90
11639;DHT22;5875;35.940;126.892;2023-04-09T02:07:46;25.40;99.90
11639;DHT22;5875;35.940;126.892;2023-04-09T02:10:14;24.90;89.20
11639;DHT22;5875;35.940;126.892;2023-04-09T02:12:48;25.00;75.90
11639;DHT22;5875;35.940;126.892;2023-04-09T02:15:18;25.20;78.10
11639;DHT22;5875;35.940;126.892;2023-04-09T02:17:45;25.10;66.50
11639;DHT22;5875;35.940;126.892;2023-04-09T02:20:16;25.70;64.70
11639;DHT22;5875;35.940;126.892;2023-04-09T02:22:44;25.80;53.40
11639;DHT22;5875;35.940;126.892;2023-04-09T02:25:12;26.00;51.00
11639;DHT22;5875;35.940;126.892;2023-04-09T02:27:40;25.80;39.00
11639;DHT22;5875;35.940;126.892;2023-04-09T02:30:07;26.10;38.50
11639;DHT22;5875;35.940;126.892;2023-04-09T02:32:35;25.50;22.70
11639;DHT22;5875;35.940;126.892;2023-04-09T02:35:02;26.00;24.90
11639;DHT22;5875;35.940;126.892;2023-04-09T02:37:29;26.30;15.00
11639;DHT22;5875;35.940;126.892;2023-04-09T02:39:56;26.70;10.20
11639;DHT22;5875;35.940;126.892;2023-04-09T02:42:24;26.70;3.50
11639;DHT22;5875;35.940;126.892;2023-04-09T02:44:51;26.80;1.10
11639;DHT22;5875;35.940;126.892;2023-04-09T02:47:18;26.60;1.00
11639;DHT22;5875;35.940;126.892;2023-04-09T02:49:45;26.30;1.00
11639;DHT22;5875;35.940;126.892;2023-04-09T02:52:12;26.20;1.00
11639;DHT22;5875;35.940;126.892;2023-04-09T02:54:40;26.10;1.00
11639;DHT22;5875;35.940;126.892;2023-04-09T02:57:07;26.10;1.00
11639;DHT22;5875;35.940;126.892;2023-04-09T02:59:34;26.20;1.00
11639;DHT22;5875;35.940;126.892;2023-04-09T03:02:04;26.30;1.00
11639;DHT22;5875;35.940;126.892;2023-04-09T03:04:31;26.30;1.00
11639;DHT22;5875;35.940;126.892;2023-04-09T03:06:58;26.30;1.00
11639;DHT22;5875;35.940;126.892;2023-04-09T03:09:25;26.10;1.00
11639;DHT22;5875;35.940;126.892;2023-04-09T03:11:52;26.20;1.00
11639;DHT22;5875;35.940;126.892;2023-04-09T03:14:22;26.10;1.00
11639;DHT22;5875;35.940;126.892;2023-04-09T03:16:49;25.60;1.00
11639;DHT22;5875;35.940;126.892;2023-04-09T03:19:16;25.80;1.00
11639;DHT22;5875;35.940;126.892;2023-04-09T03:21:43;25.90;1.00
11639;DHT22;5875;35.940;126.892;2023-04-09T03:24:11;25.90;1.00
11639;DHT22;5875;35.940;126.892;2023-04-09T03:26:39;26.00;1.00
11639;DHT22;5875;35.940;126.892;2023-04-09T03:29:06;25.80;1.00
11639;DHT22;5875;35.940;126.892;2023-04-09T03:31:33;26.00;1.00
11639;DHT22;5875;35.940;126.892;2023-04-09T03:34:00;26.10;1.00
11639;DHT22;5875;35.940;126.892;2023-04-09T03:36:28;25.90;1.00
11639;DHT22;5875;35.940;126.892;2023-04-09T03:38:55;25.40;1.00
11639;DHT22;5875;35.940;126.892;2023-04-09T03:41:22;25.10;1.00
11639;DHT22;5875;35.940;126.892;2023-04-09T03:43:49;25.30;1.00
11639;DHT22;5875;35.940;126.892;2023-04-09T03:46:17;25.30;1.00
11639;DHT22;5875;35.940;126.892;2023-04-09T03:48:44;25.60;1.00
11639;DHT22;5875;35.940;126.892;2023-04-09T03:51:13;25.10;1.00
11639;DHT22;5875;35.940;126.892;2023-04-09T03:53:41;25.20;1.00
11639;DHT22;5875;35.940;126.892;2023-04-09T03:56:09;25.20;1.00
11639;DHT22;5875;35.940;126.892;2023-04-09T03:58:36;25.50;1.00
11639;DHT22;5875;35.940;126.892;2023-04-09T04:01:04;25.50;1.00
11639;DHT22;5875;35.940;126.892;2023-04-09T04:03:31;25.40;1.00
11639;DHT22;5875;35.940;126.892;2023-04-09T04:06:02;25.30;1.00
11639;DHT22;5875;35.940;126.892;2023-04-09T04:08:29;25.10;1.00
11639;DHT22;5875;35.940;126.892;2023-04-09T04:11:03;25.00;1.00
11639;DHT22;5875;35.940;126.892;2023-04-09T04:13:30;24.60;1.00
11639;DHT22;5875;35.940;126.892;2023-04-09T04:15:57;25.00;1.00
11639;DHT22;5875;35.940;126.892;2023-04-09T04:18:25;24.90;1.00
11639;DHT22;5875;35.940;126.892;2023-04-09T04:20:52;24.90;1.00
11639;DHT22;5875;35.940;126.892;2023-04-09T04:23:19;24.80;1.00
11639;DHT22;5875;35.940;126.892;2023-04-09T04:25:46;24.30;1.00
11639;DHT22;5875;35.940;126.892;2023-04-09T04:28:13;24.50;1.00
11639;DHT22;5875;35.940;126.892;2023-04-09T04:30:41;24.60;1.00
11639;DHT22;5875;35.940;126.892;2023-04-09T04:33:09;24.80;1.00
11639;DHT22;5875;35.940;126.892;2023-04-09T04:35:36;25.00;1.00
11639;DHT22;5875;35.940;126.892;2023-04-09T04:38:03;25.10;1.00
11639;DHT22;5875;35.940;126.892;2023-04-09T04:40:30;24.70;1.00
11639;DHT22;5875;35.940;126.892;2023-04-09T04:42:58;24.90;1.00
11639;DHT22;5875;35.940;126.892;2023-04-09T04:45:25;24.90;1.00
11639;DHT22;5875;35.940;126.892;2023-04-09T04:47:52;24.50;1.00
11639;DHT22;5875;35.940;126.892;2023-04-09T04:50:19;24.20;1.00
11639;DHT22;5875;35.940;126.892;2023-04-09T04:52:46;24.40;1.00
11639;DHT22;5875;35.940;126.892;2023-04-09T04:55:13;24.20;1.00
11639;DHT22;5875;35.940;126.892;2023-04-09T04:57:41;24.30;1.00
11639;DHT22;5875;35.940;126.892;2023-04-09T05:00:08;24.50;1.00
11639;DHT22;5875;35.940;126.892;2023-04-09T05:02:36;24.50;1.00
11639;DHT22;5875;35.940;126.892;2023-04-09T05:05:03;24.70;1.00
11639;DHT22;5875;35.940;126.892;2023-04-09T05:07:32;24.60;1.00
11639;DHT22;5875;35.940;126.892;2023-04-09T05:09:59;24.50;1.00
11639;DHT22;5875;35.940;126.892;2023-04-09T05:12:26;24.70;1.00
11639;DHT22;5875;35.940;126.892;2023-04-09T05:14:53;24.40;1.00
11639;DHT22;5875;35.940;126.892;2023-04-09T05:17:21;24.20;1.00
11639;DHT22;5875;35.940;126.892;2023-04-09T05:19:53;24.30;1.00
11639;DHT22;5875;35.940;126.892;2023-04-09T05:22:21;24.40;1.00
11639;DHT22;5875;35.940;126.892;2023-04-09T05:24:48;24.50;1.00
11639;DHT22;5875;35.940;126.892;2023-04-09T05:27:16;24.30;1.00
11639;DHT22;5875;35.940;126.892;2023-04-09T05:29:44;24.20;1.00
11639;DHT22;5875;35.940;126.892;2023-04-09T05:32:12;24.50;1.00
11639;DHT22;5875;35.940;126.892;2023-04-09T05:34:39;24.50;1.00
11639;DHT22;5875;35.940;126.892;2023-04-09T05:37:06;24.20;1.00
11639;DHT22;5875;35.940;126.892;2023-04-09T05:39:33;24.10;1.00
11639;DHT22;5875;35.940;126.892;2023-04-09T05:42:01;24.00;1.00
11639;DHT22;5875;35.940;126.892;2023-04-09T05:44:28;24.00;1.00
11639;DHT22;5875;35.940;126.892;2023-04-09T05:46:55;23.80;1.00
11639;DHT22;5875;35.940;126.892;2023-04-09T05:49:23;23.60;1.00
11639;DHT22;5875;35.940;126.892;2023-04-09T06:01:40;23.60;1.00
11639;DHT22;5875;35.940;126.892;2023-04-09T06:04:07;23.20;1.00
11639;DHT22;5875;35.940;126.892;2023-04-09T06:09:04;22.90;1.00
11639;DHT22;5875;35.940;126.892;2023-04-09T06:11:31;22.60;1.00
11639;DHT22;5875;35.940;126.892;2023-04-09T06:13:59;22.50;1.00
11639;DHT22;5875;35.940;126.892;2023-04-09T06:16:26;22.40;1.00
11639;DHT22;5875;35.940;126.892;2023-04-09T06:18:53;22.20;1.00
11639;DHT22;5875;35.940;126.892;2023-04-09T06:21:22;22.40;1.00
11639;DHT22;5875;35.940;126.892;2023-04-09T06:23:49;22.50;1.00
11639;DHT22;5875;35.940;126.892;2023-04-09T06:26:18;22.50;1.00
11639;DHT22;5875;35.940;126.892;2023-04-09T06:28:46;22.20;1.00
11639;DHT22;5875;35.940;126.892;2023-04-09T06:31:13;22.10;1.00
11639;DHT22;5875;35.940;126.892;2023-04-09T06:33:41;22.10;1.00
11639;DHT22;5875;35.940;126.892;2023-04-09T06:36:08;22.10;1.00
11639;DHT22;5875;35.940;126.892;2023-04-09T06:38:35;22.10;1.00
11639;DHT22;5875;35.940;126.892;2023-04-09T06:41:02;22.20;1.00
11639;DHT22;5875;35.940;126.892;2023-04-09T06:43:32;22.10;1.00
11639;DHT22;5875;35.940;126.892;2023-04-09T06:45:59;22.00;1.00
11639;DHT22;5875;35.940;126.892;2023-04-09T06:48:26;21.80;1.00
11639;DHT22;5875;35.940;126.892;2023-04-09T06:50:54;21.60;1.00
11639;DHT22;5875;35.940;126.892;2023-04-09T06:53:21;21.60;1.00
11639;DHT22;5875;35.940;126.892;2023-04-09T06:55:48;21.60;1.00
11639;DHT22;5875;35.940;126.892;2023-04-09T06:58:15;21.50;1.00
11639;DHT22;5875;35.940;126.892;2023-04-09T07:00:43;21.20;1.00
11639;DHT22;5875;35.940;126.892;2023-04-09T08:51:20;21.20;1.00
11639;DHT22;5875;35.940;126.892;2023-04-09T08:58:47;17.30;1.00
11639;DHT22;5875;35.940;126.892;2023-04-09T09:01:27;17.00;1.00
11639;DHT22;5875;35.940;126.892;2023-04-09T09:04:04;16.90;1.00
11639;DHT22;5875;35.940;126.892;2023-04-09T09:06:36;16.90;1.00
11639;DHT22;5875;35.940;126.892;2023-04-09T09:09:15;16.70;1.00
11639;DHT22;5875;35.940;126.892;2023-04-09T09:11:45;16.80;1.00
11639;DHT22;5875;35.940;126.892;2023-04-09T09:14:14;16.80;1.00
11639;DHT22;5875;35.940;126.892;2023-04-09T09:16:43;16.70;1.00
11639;DHT22;5875;35.940;126.892;2023-04-09T09:21:59;16.60;1.00
11639;DHT22;5875;35.940;126.892;2023-04-09T09:24:27;16.60;1.00
11639;DHT22;5875;35.940;126.892;2023-04-09T09:26:54;16.50;1.00
11639;DHT22;5875;35.940;126.892;2023-04-09T09:29:22;16.50;1.00
11639;DHT22;5875;35.940;126.892;2023-04-09T09:31:52;16.40;1.00
11639;DHT22;5875;35.940;126.892;2023-04-09T09:34:21;16.20;1.00
11639;DHT22;5875;35.940;126.892;2023-04-09T09:36:49;16.20;1.00
11639;DHT22;5875;35.940;126.892;2023-04-09T09:39:16;16.20;1.00
11639;DHT22;5875;35.940;126.892;2023-04-09T09:41:44;16.20;1.00
11639;DHT22;5875;35.940;126.892;2023-04-09T09:44:29;16.10;1.00
11639;DHT22;5875;35.940;126.892;2023-04-09T09:46:58;16.10;1.00
11639;DHT22;5875;35.940;126.892;2023-04-09T09:49:26;15.90;1.00
11639;DHT22;5875;35.940;126.892;2023-04-09T09:51:56;15.80;1.00
11639;DHT22;5875;35.940;126.892;2023-04-09T09:54:26;15.70;1.00
11639;DHT22;5875;35.940;126.892;2023-04-09T09:56:57;15.50;1.00
11639;DHT22;5875;35.940;126.892;2023-04-09T09:59:32;15.20;1.00
11639;DHT22;5875;35.940;126.892;2023-04-09T10:02:04;15.00;1.00
11639;DHT22;5875;35.940;126.892;2023-04-09T10:04:35;14.70;1.00
11639;DHT22;5875;35.940;126.892;2023-04-09T10:07:06;14.80;1.00
11639;DHT22;5875;35.940;126.892;2023-04-09T10:09:36;14.90;1.00
11639;DHT22;5875;35.940;126.892;2023-04-09T10:12:05;14.60;1.00
11639;DHT22;5875;35.940;126.892;2023-04-09T10:14:34;14.20;1.00
11639;DHT22;5875;35.940;126.892;2023-04-09T10:17:02;14.00;1.00
11639;DHT22;5875;35.940;126.892;2023-04-09T10:19:51;14.20;1.00
11639;DHT22;5875;35.940;126.892;2023-04-09T10:22:23;14.30;1.00
11639;DHT22;5875;35.940;126.892;2023-04-09T10:24:52;14.50;1.00
11639;DHT22;5875;35.940;126.892;2023-04-09T10:27:21;14.50;1.00
11639;DHT22;5875;35.940;126.892;2023-04-09T10:29:49;14.40;1.00
11639;DHT22;5875;35.940;126.892;2023-04-09T10:32:23;14.20;1.00
11639;DHT22;5875;35.940;126.892;2023-04-09T10:34:57;14.20;3.00
11639;DHT22;5875;35.940;126.892;2023-04-09T10:37:27;14.30;6.20
11639;DHT22;5875;35.940;126.892;2023-04-09T10:39:55;14.20;8.00
11639;DHT22;5875;35.940;126.892;2023-04-09T10:42:29;14.10;6.80
11639;DHT22;5875;35.940;126.892;2023-04-09T10:45:09;14.00;8.70
11639;DHT22;5875;35.940;126.892;2023-04-09T10:47:38;13.50;11.10
11639;DHT22;5875;35.940;126.892;2023-04-09T10:50:20;13.60;12.20
11639;DHT22;5875;35.940;126.892;2023-04-09T10:52:52;13.60;14.30
11639;DHT22;5875;35.940;126.892;2023-04-09T10:55:40;13.60;16.10
11639;DHT22;5875;35.940;126.892;2023-04-09T10:58:10;13.70;15.80
11639;DHT22;5875;35.940;126.892;2023-04-09T11:00:43;13.60;17.60
11639;DHT22;5875;35.940;126.892;2023-04-09T11:03:23;13.50;19.50
11639;DHT22;5875;35.940;126.892;2023-04-09T11:08:32;13.60;35.70
11639;DHT22;5875;35.940;126.892;2023-04-09T11:11:03;13.40;43.00
11639;DHT22;5875;35.940;126.892;2023-04-09T11:13:32;13.00;39.30
11639;DHT22;5875;35.940;126.892;2023-04-09T11:15:59;12.80;47.50
11639;DHT22;5875;35.940;126.892;2023-04-09T11:18:29;12.70;48.70
11639;DHT22;5875;35.940;126.892;2023-04-09T11:21:00;12.50;39.80
11639;DHT22;5875;35.940;126.892;2023-04-09T11:23:29;11.60;43.10
11639;DHT22;5875;35.940;126.892;2023-04-09T11:25:57;11.00;57.00
11639;DHT22;5875;35.940;126.892;2023-04-09T11:28:25;10.80;64.50
11639;DHT22;5875;35.940;126.892;2023-04-09T11:30:53;10.50;76.10
11639;DHT22;5875;35.940;126.892;2023-04-09T11:33:20;10.50;84.60
11639;DHT22;5875;35.940;126.892;2023-04-09T11:35:48;10.80;86.00
11639;DHT22;5875;35.940;126.892;2023-04-09T11:38:15;11.10;80.70
11639;DHT22;5875;35.940;126.892;2023-04-09T11:40:43;11.50;81.60
11639;DHT22;5875;35.940;126.892;2023-04-09T11:43:13;11.30;70.00
11639;DHT22;5875;35.940;126.892;2023-04-09T11:45:43;11.00;73.40
11639;DHT22;5875;35.940;126.892;2023-04-09T11:48:13;11.00;77.90
11639;DHT22;5875;35.940;126.892;2023-04-09T11:50:43;10.80;81.70
11639;DHT22;5875;35.940;126.892;2023-04-09T11:53:21;11.10;91.70
11639;DHT22;5875;35.940;126.892;2023-04-09T11:55:51;11.50;82.90
11639;DHT22;5875;35.940;126.892;2023-04-09T11:58:22;11.60;76.90
11639;DHT22;5875;35.940;126.892;2023-04-09T12:01:02;11.70;73.20
11639;DHT22;5875;35.940;126.892;2023-04-09T12:03:30;11.80;67.90
11639;DHT22;5875;35.940;126.892;2023-04-09T12:06:03;11.80;68.00
11639;DHT22;5875;35.940;126.892;2023-04-09T12:08:34;11.90;65.00
11639;DHT22;5875;35.940;126.892;2023-04-09T12:11:15;11.90;65.00
11639;DHT22;5875;35.940;126.892;2023-04-09T12:13:42;12.00;60.90
11639;DHT22;5875;35.940;126.892;2023-04-09T12:16:13;12.00;61.30
11639;DHT22;5875;35.940;126.892;2023-04-09T12:18:47;12.10;58.90
11639;DHT22;5875;35.940;126.892;2023-04-09T12:21:15;11.90;58.40
11639;DHT22;5875;35.940;126.892;2023-04-09T12:23:43;11.90;58.00
11639;DHT22;5875;35.940;126.892;2023-04-09T12:26:10;11.40;56.50
11639;DHT22;5875;35.940;126.892;2023-04-09T12:28:37;10.90;70.60
11639;DHT22;5875;35.940;126.892;2023-04-09T12:31:08;10.90;78.40
11639;DHT22;5875;35.940;126.892;2023-04-09T12:33:35;11.30;79.10
11639;DHT22;5875;35.940;126.892;2023-04-09T12:36:04;11.10;68.30
11639;DHT22;5875;35.940;126.892;2023-04-09T12:38:31;10.70;69.20
11639;DHT22;5875;35.940;126.892;2023-04-09T12:40:58;10.90;76.00
11639;DHT22;5875;35.940;126.892;2023-04-09T12:43:26;10.90;80.00
11639;DHT22;5875;35.940;126.892;2023-04-09T12:45:53;11.00;76.00
11639;DHT22;5875;35.940;126.892;2023-04-09T12:48:21;11.20;76.40
11639;DHT22;5875;35.940;126.892;2023-04-09T12:50:48;11.30;75.60
11639;DHT22;5875;35.940;126.892;2023-04-09T12:53:21;11.40;71.90
11639;DHT22;5875;35.940;126.892;2023-04-09T12:55:48;11.50;69.10
11639;DHT22;5875;35.940;126.892;2023-04-09T12:58:16;11.30;65.20
11639;DHT22;5875;35.940;126.892;2023-04-09T13:00:43;11.40;65.70
11639;DHT22;5875;35.940;126.892;2023-04-09T13:03:10;11.10;67.30
11639;DHT22;5875;35.940;126.892;2023-04-09T13:05:37;11.20;67.00
11639;DHT22;5875;35.940;126.892;2023-04-09T13:08:05;11.20;68.00
11639;DHT22;5875;35.940;126.892;2023-04-09T13:10:32;11.20;68.40
11639;DHT22;5875;35.940;126.892;2023-04-09T13:13:00;11.10;72.00
11639;DHT22;5875;35.940;126.892;2023-04-09T13:15:27;10.90;73.10
11639;DHT22;5875;35.940;126.892;2023-04-09T13:17:55;10.90;74.70
11639;DHT22;5875;35.940;126.892;2023-04-09T13:20:22;10.90;75.10
11639;DHT22;5875;35.940;126.892;2023-04-09T13:22:49;10.70;77.90
11639;DHT22;5875;35.940;126.892;2023-04-09T13:25:17;10.60;82.80
11639;DHT22;5875;35.940;126.892;2023-04-09T13:27:44;10.70;83.20
11639;DHT22;5875;35.940;126.892;2023-04-09T13:30:12;10.80;83.20
11639;DHT22;5875;35.940;126.892;2023-04-09T13:32:39;10.80;80.30
11639;DHT22;5875;35.940;126.892;2023-04-09T13:35:07;10.90;78.60
11639;DHT22;5875;35.940;126.892;2023-04-09T13:37:35;10.90;76.80
11639;DHT22;5875;35.940;126.892;2023-04-09T13:40:02;10.80;74.60
11639;DHT22;5875;35.940;126.892;2023-04-09T13:42:30;10.90;77.10
11639;DHT22;5875;35.940;126.892;2023-04-09T13:44:59;11.00;80.00
11639;DHT22;5875;35.940;126.892;2023-04-09T13:47:27;11.00;80.00
11639;DHT22;5875;35.940;126.892;2023-04-09T13:49:54;11.00;77.30
11639;DHT22;5875;35.940;126.892;2023-04-09T13:52:21;11.00;77.30
11639;DHT22;5875;35.940;126.892;2023-04-09T13:54:49;10.80;77.30
11639;DHT22;5875;35.940;126.892;2023-04-09T13:57:18;10.60;78.40
11639;DHT22;5875;35.940;126.892;2023-04-09T13:59:46;10.60;80.20
11639;DHT22;5875;35.940;126.892;2023-04-09T14:02:13;10.60;79.70
11639;DHT22;5875;35.940;126.892;2023-04-09T14:04:40;10.40;76.70
11639;DHT22;5875;35.940;126.892;2023-04-09T14:07:07;10.00;83.00
11639;DHT22;5875;35.940;126.892;2023-04-09T14:09:34;9.90;90.80
11639;DHT22;5875;35.940;126.892;2023-04-09T14:12:02;10.00;92.10
11639;DHT22;5875;35.940;126.892;2023-04-09T14:14:29;9.60;93.30
11639;DHT22;5875;35.940;126.892;2023-04-09T14:16:56;9.00;99.90
11639;DHT22;5875;35.940;126.892;2023-04-09T14:19:23;8.60;99.90
11639;DHT22;5875;35.940;126.892;2023-04-09T14:21:51;8.80;99.90
11639;DHT22;5875;35.940;126.892;2023-04-09T14:24:21;8.80;99.90
11639;DHT22;5875;35.940;126.892;2023-04-09T14:26:49;9.10;99.90
11639;DHT22;5875;35.940;126.892;2023-04-09T14:29:19;9.50;99.90
11639;DHT22;5875;35.940;126.892;2023-04-09T14:31:46;9.70;99.90
11639;DHT22;5875;35.940;126.892;2023-04-09T14:34:14;9.90;99.30
11639;DHT22;5875;35.940;126.892;2023-04-09T14:36:41;9.80;96.90
11639;DHT22;5875;35.940;126.892;2023-04-09T14:39:08;9.70;91.20
11639;DHT22;5875;35.940;126.892;2023-04-09T14:41:36;9.10;91.50
11639;DHT22;5875;35.940;126.892;2023-04-09T14:44:03;8.80;99.90
11639;DHT22;5875;35.940;126.892;2023-04-09T14:46:31;9.30;99.90
11639;DHT22;5875;35.940;126.892;2023-04-09T14:48:58;9.60;99.90
11639;DHT22;5875;35.940;126.892;2023-04-09T14:51:25;9.70;99.90
11639;DHT22;5875;35.940;126.892;2023-04-09T14:53:53;9.80;99.90
11639;DHT22;5875;35.940;126.892;2023-04-09T14:56:20;9.70;99.90
11639;DHT22;5875;35.940;126.892;2023-04-09T14:58:47;9.70;99.90
11639;DHT22;5875;35.940;126.892;2023-04-09T15:01:14;9.60;99.90
11639;DHT22;5875;35.940;126.892;2023-04-09T15:03:42;9.70;99.90
11639;DHT22;5875;35.940;126.892;2023-04-09T15:06:12;9.80;99.90
11639;DHT22;5875;35.940;126.892;2023-04-09T15:08:39;9.70;99.90
11639;DHT22;5875;35.940;126.892;2023-04-09T15:11:07;9.70;99.90
11639;DHT22;5875;35.940;126.892;2023-04-09T15:13:35;9.60;99.90
11639;DHT22;5875;35.940;126.892;2023-04-09T15:16:02;9.80;99.90
11639;DHT22;5875;35.940;126.892;2023-04-09T15:18:29;9.10;99.90
11639;DHT22;5875;35.940;126.892;2023-04-09T15:20:56;8.40;99.90
11639;DHT22;5875;35.940;126.892;2023-04-09T15:23:23;7.90;99.90
11639;DHT22;5875;35.940;126.892;2023-04-09T15:25:51;7.40;99.90
11639;DHT22;5875;35.940;126.892;2023-04-09T15:28:18;8.00;99.90
11639;DHT22;5875;35.940;126.892;2023-04-09T15:30:45;8.30;99.90
11639;DHT22;5875;35.940;126.892;2023-04-09T15:33:12;8.70;99.90
11639;DHT22;5875;35.940;126.892;2023-04-09T15:35:40;8.70;99.90
11639;DHT22;5875;35.940;126.892;2023-04-09T15:38:07;8.80;99.90
11639;DHT22;5875;35.940;126.892;2023-04-09T15:40:34;8.80;99.90
11639;DHT22;5875;35.940;126.892;2023-04-09T15:43:01;8.70;99.90
11639;DHT22;5875;35.940;126.892;2023-04-09T15:45:28;8.80;99.90
11639;DHT22;5875;35.940;126.892;2023-04-09T15:47:56;8.90;99.90
11639;DHT22;5875;35.940;126.892;2023-04-09T15:50:23;9.00;99.90
11639;DHT22;5875;35.940;126.892;2023-04-09T15:52:50;9.10;99.90
11639;DHT22;5875;35.940;126.892;2023-04-09T15:55:17;9.10;99.90
11639;DHT22;5875;35.940;126.892;2023-04-09T15:57:44;9.20;99.90
11639;DHT22;5875;35.940;126.892;2023-04-09T16:00:12;9.20;99.90
11639;DHT22;5875;35.940;126.892;2023-04-09T16:02:41;9.10;99.90
11639;DHT22;5875;35.940;126.892;2023-04-09T16:05:08;8.20;99.50
11639;DHT22;5875;35.940;126.892;2023-04-09T16:07:35;7.90;99.90
11639;DHT22;5875;35.940;126.892;2023-04-09T16:10:02;7.60;99.90
11639;DHT22;5875;35.940;126.892;2023-04-09T16:12:30;7.40;99.90
11639;DHT22;5875;35.940;126.892;2023-04-09T16:14:58;7.30;99.90
11639;DHT22;5875;35.940;126.892;2023-04-09T16:17:25;7.70;99.90
11639;DHT22;5875;35.940;126.892;2023-04-09T16:19:52;8.10;99.90
11639;DHT22;5875;35.940;126.892;2023-04-09T16:22:19;8.30;99.90
11639;DHT22;5875;35.940;126.892;2023-04-09T16:24:46;8.50;99.90
11639;DHT22;5875;35.940;126.892;2023-04-09T16:27:13;8.40;99.90
11639;DHT22;5875;35.940;126.892;2023-04-09T16:29:42;8.30;99.90
11639;DHT22;5875;35.940;126.892;2023-04-09T16:32:09;8.40;99.90
11639;DHT22;5875;35.940;126.892;2023-04-09T16:34:37;8.40;99.90
11639;DHT22;5875;35.940;126.892;2023-04-09T16:37:04;8.30;99.90
11639;DHT22;5875;35.940;126.892;2023-04-09T16:39:31;8.40;99.90
11639;DHT22;5875;35.940;126.892;2023-04-09T16:41:58;8.50;99.90
11639;DHT22;5875;35.940;126.892;2023-04-09T16:44:26;8.50;99.90
11639;DHT22;5875;35.940;126.892;2023-04-09T16:46:54;8.50;99.90
11639;DHT22;5875;35.940;126.892;2023-04-09T16:49:22;8.60;99.90
11639;DHT22;5875;35.940;126.892;2023-04-09T16:51:49;8.30;99.90
11639;DHT22;5875;35.940;126.892;2023-04-09T16:54:18;8.10;99.90
11639;DHT22;5875;35.940;126.892;2023-04-09T16:56:45;8.20;99.90
11639;DHT22;5875;35.940;126.892;2023-04-09T16:59:14;8.30;99.90
11639;DHT22;5875;35.940;126.892;2023-04-09T17:01:43;8.30;99.90
11639;DHT22;5875;35.940;126.892;2023-04-09T17:04:11;8.30;99.90
11639;DHT22;5875;35.940;126.892;2023-04-09T17:06:38;8.30;99.90
11639;DHT22;5875;35.940;126.892;2023-04-09T17:09:05;8.20;99.90
11639;DHT22;5875;35.940;126.892;2023-04-09T17:11:32;8.20;99.90
11639;DHT22;5875;35.940;126.892;2023-04-09T17:14:00;8.20;99.90
11639;DHT22;5875;35.940;126.892;2023-04-09T17:16:27;8.20;99.90
11639;DHT22;5875;35.940;126.892;2023-04-09T17:18:54;8.10;99.90
11639;DHT22;5875;35.940;126.892;2023-04-09T17:21:21;8.10;99.90
11639;DHT22;5875;35.940;126.892;2023-04-09T17:23:48;8.10;99.90
11639;DHT22;5875;35.940;126.892;2023-04-09T17:26:16;8.00;99.90
11639;DHT22;5875;35.940;126.892;2023-04-09T17:28:43;8.10;99.90
11639;DHT22;5875;35.940;126.892;2023-04-09T17:31:13;8.10;99.90
11639;DHT22;5875;35.940;126.892;2023-04-09T17:33:43;8.10;99.90
11639;DHT22;5875;35.940;126.892;2023-04-09T17:36:17;8.10;99.90
11639;DHT22;5875;35.940;126.892;2023-04-09T17:38:45;8.10;99.90
11639;DHT22;5875;35.940;126.892;2023-04-09T17:41:13;8.20;99.90
11639;DHT22;5875;35.940;126.892;2023-04-09T17:43:40;8.20;99.90
11639;DHT22;5875;35.940;126.892;2023-04-09T17:46:07;8.10;99.90
11639;DHT22;5875;35.940;126.892;2023-04-09T17:48:37;7.60;99.90
11639;DHT22;5875;35.940;126.892;2023-04-09T17:51:05;6.90;99.90
11639;DHT22;5875;35.940;126.892;2023-04-09T17:53:32;6.40;99.90